East Bethany, New York
Current Conditions -  °F | °C
As of 3:54 AM on Friday 21 Nov 2014 (Local Time) from KROC Reporting Station
Clear Clear  
Wind Chill:   Ceiling: Unl
Heat Index: 19°   Visibility: 10mi
Dew Point:   Wind: 13mph
Humidity: 65%   Direction: 250°WSW
Pressure: 30.08"   Gusts: NA
Location:  42.93°N, 78.1°W
Report Text: KROC 210854Z 25011KT 10SM CLR M07/M13 A3008 RMK AO2 SLP196 T10721128 51023
Loading
Personal Weather Stations






























Interactive Weather Map New forecast layout! Learn more

10-Day Weather Forecast

Advertisements
Track Severe Weather on mobile